PAPG

Petersburg James A. Johnson Airport

Airport
ICAO code
PAPG
Summary
ICAO Region
NAM
ICAO Territory
Location

Petersburg,

Coordinates
56° 48' 6" N , 132° 56' 43" W
KCC
Airport BS
Bird Strike
Non Avian Wildlife Hazards to Aircraft
Airport CFIT
Altimeter Temperature Error Correction
Metar
PAPG 140456Z 23005KT 10SM SCT040 BKN060 11/08 A3003 RMK AO2 RAB01E21 SLP171 P0000 T01110083

Description

Regional airport serving the community of Petersburg which is located on Mitkof Island in the Alaska panhandle.

Climatology

Temperate Marine climate/Oceanic climate (Köppen climate classification Cfb). Moderately cool summer and comparatively warm winter with a temperature range of only 14°C.

Runways

Designator Length Width Surface Rops
4/22 1829 46 ASP Yes/Yes

Airport map

Aerial View

SKYbrary Partners:

Safety knowledge contributed by: